createdAt,value
2022-08-25T00:01:59.257Z,18.60
2022-08-25T00:04:25.910Z,18.50
2022-08-25T00:06:53.715Z,18.40
2022-08-25T00:09:21.113Z,18.30
2022-08-25T00:11:49.226Z,18.30
2022-08-25T00:14:20.066Z,18.20
2022-08-25T00:16:46.789Z,18.10
2022-08-25T00:19:14.988Z,18.10
2022-08-25T00:21:41.959Z,18.00
2022-08-25T00:24:09.243Z,18.00
2022-08-25T00:26:38.016Z,17.90
2022-08-25T00:29:05.477Z,17.90
2022-08-25T00:31:38.231Z,17.90
2022-08-25T00:34:09.408Z,17.80
2022-08-25T00:36:35.999Z,17.70
2022-08-25T00:39:02.576Z,17.70
2022-08-25T00:41:29.484Z,17.70
2022-08-25T00:43:56.662Z,17.70
2022-08-25T00:46:30.440Z,17.70
2022-08-25T00:49:00.982Z,17.60
2022-08-25T00:51:32.922Z,17.60
2022-08-25T00:53:59.514Z,17.70
2022-08-25T00:56:26.106Z,17.60
2022-08-25T00:58:52.786Z,17.70
2022-08-25T01:01:19.369Z,17.70
2022-08-25T01:03:46.196Z,17.70
2022-08-25T01:06:12.768Z,17.70
2022-08-25T01:08:39.362Z,17.60
2022-08-25T01:11:06.501Z,17.60
2022-08-25T01:13:40.555Z,17.50
2022-08-25T01:16:07.417Z,17.40
2022-08-25T01:18:44.491Z,17.40
2022-08-25T01:21:11.239Z,17.40
2022-08-25T01:23:38.077Z,17.30
2022-08-25T01:26:07.848Z,17.30
2022-08-25T01:28:34.465Z,17.20
2022-08-25T01:31:01.082Z,17.10
2022-08-25T01:33:27.833Z,17.10
2022-08-25T01:35:54.400Z,16.90
2022-08-25T01:38:20.996Z,16.90
2022-08-25T01:40:49.685Z,16.80
2022-08-25T01:43:18.221Z,16.80
2022-08-25T01:45:46.303Z,16.80
2022-08-25T01:48:13.028Z,16.70
2022-08-25T01:50:39.714Z,16.70
2022-08-25T01:53:24.567Z,16.70
2022-08-25T01:56:01.793Z,16.70
2022-08-25T01:58:30.505Z,16.80
2022-08-25T02:00:58.705Z,16.90
2022-08-25T02:03:25.641Z,16.90
2022-08-25T02:05:53.497Z,16.80
2022-08-25T02:08:20.203Z,16.90
2022-08-25T02:10:46.781Z,16.90
2022-08-25T02:13:13.451Z,16.80
2022-08-25T02:15:44.710Z,16.80
2022-08-25T02:18:11.331Z,16.80
2022-08-25T02:20:38.010Z,16.80
2022-08-25T02:23:04.995Z,16.70
2022-08-25T02:25:32.150Z,16.60
2022-08-25T02:27:58.861Z,16.50
2022-08-25T02:30:25.911Z,16.50
2022-08-25T02:32:52.511Z,16.50
2022-08-25T02:35:19.169Z,16.50
2022-08-25T02:37:45.960Z,16.50
2022-08-25T02:40:12.807Z,16.50
2022-08-25T02:42:42.695Z,16.50
2022-08-25T02:45:09.448Z,16.50
2022-08-25T02:47:37.134Z,16.60
2022-08-25T02:50:07.069Z,16.60
2022-08-25T02:52:35.105Z,16.70
2022-08-25T02:55:04.775Z,16.70
2022-08-25T02:57:31.463Z,16.70
2022-08-25T02:59:58.861Z,16.80
2022-08-25T03:02:26.040Z,16.70
2022-08-25T03:04:52.769Z,16.60
2022-08-25T03:07:21.891Z,16.50
2022-08-25T03:09:51.370Z,16.30
2022-08-25T03:12:18.207Z,16.30
2022-08-25T03:14:44.924Z,16.20
2022-08-25T03:17:13.185Z,16.00
2022-08-25T03:19:39.767Z,16.00
2022-08-25T03:22:06.770Z,15.90
2022-08-25T03:24:33.376Z,15.90
2022-08-25T03:27:00.160Z,15.90
2022-08-25T03:29:27.986Z,16.00
2022-08-25T03:31:54.907Z,16.10
2022-08-25T03:34:21.913Z,16.20
2022-08-25T03:36:49.276Z,16.30
2022-08-25T03:39:16.228Z,16.30
2022-08-25T03:41:42.833Z,16.40
2022-08-25T03:44:10.039Z,16.40
2022-08-25T03:46:40.825Z,16.40
2022-08-25T03:49:07.879Z,16.40
2022-08-25T03:51:36.593Z,16.40
2022-08-25T03:54:03.357Z,16.40
2022-08-25T03:56:30.119Z,16.50
2022-08-25T03:58:56.699Z,16.50
2022-08-25T04:01:23.512Z,16.60
2022-08-25T04:03:50.165Z,16.60
2022-08-25T04:06:17.022Z,16.70
2022-08-25T04:08:43.625Z,16.80
2022-08-25T04:11:11.085Z,16.90
2022-08-25T04:13:39.633Z,17.50
2022-08-25T04:16:26.654Z,18.10
2022-08-25T04:18:53.710Z,18.40
2022-08-25T04:21:20.352Z,18.50
2022-08-25T04:23:48.846Z,18.40
2022-08-25T04:26:16.526Z,18.50
2022-08-25T04:28:43.112Z,18.50
2022-08-25T04:31:09.972Z,18.20
2022-08-25T04:33:36.820Z,17.90
2022-08-25T04:36:06.700Z,17.60
2022-08-25T04:38:35.447Z,17.60
2022-08-25T04:41:02.531Z,17.90
2022-08-25T04:43:32.147Z,18.00
2022-08-25T04:45:58.863Z,17.80
2022-08-25T04:48:25.579Z,17.70
2022-08-25T04:50:52.157Z,17.60
2022-08-25T04:53:18.803Z,17.60
2022-08-25T04:55:46.249Z,17.60
2022-08-25T04:58:14.872Z,17.60
2022-08-25T05:00:43.900Z,17.60
2022-08-25T05:03:10.612Z,17.60
2022-08-25T05:05:37.260Z,17.50
2022-08-25T05:08:04.685Z,17.40
2022-08-25T05:10:31.532Z,17.40
2022-08-25T05:12:58.167Z,17.40
2022-08-25T05:15:44.570Z,17.50
2022-08-25T05:18:11.170Z,17.50
2022-08-25T05:20:37.820Z,17.70
2022-08-25T05:23:04.468Z,17.90
2022-08-25T05:25:31.152Z,18.20
2022-08-25T05:27:57.827Z,18.80
2022-08-25T05:30:24.405Z,19.60
2022-08-25T05:32:51.480Z,20.60
2022-08-25T05:35:19.442Z,21.60
2022-08-25T05:37:46.321Z,22.60
2022-08-25T05:40:13.058Z,23.20
2022-08-25T05:42:40.009Z,24.00
2022-08-25T05:45:06.912Z,24.60
2022-08-25T05:47:33.510Z,25.20
2022-08-25T05:50:00.438Z,25.60
2022-08-25T05:52:27.581Z,26.20
2022-08-25T05:54:54.286Z,26.80
2022-08-25T05:57:20.885Z,27.30
2022-08-25T05:59:47.473Z,27.70
2022-08-25T06:02:32.709Z,28.00
2022-08-25T06:04:59.315Z,28.00
2022-08-25T06:07:27.077Z,28.10
2022-08-25T06:09:53.759Z,28.20
2022-08-25T06:12:21.672Z,28.40
2022-08-25T06:14:49.375Z,28.20
2022-08-25T06:17:15.970Z,28.40
2022-08-25T06:19:42.631Z,28.80
2022-08-25T06:22:10.399Z,28.90
2022-08-25T06:24:37.039Z,29.20
2022-08-25T06:27:03.660Z,29.00
2022-08-25T06:29:30.250Z,29.10
2022-08-25T06:31:56.864Z,29.30
2022-08-25T06:34:24.080Z,29.80
2022-08-25T06:36:51.098Z,30.10
2022-08-25T06:39:17.712Z,30.40
2022-08-25T06:41:44.302Z,30.60
2022-08-25T06:44:11.433Z,30.70
2022-08-25T06:46:38.362Z,30.80
2022-08-25T06:49:05.517Z,30.90
2022-08-25T06:51:32.132Z,31.20
2022-08-25T06:53:58.740Z,31.40
2022-08-25T06:56:25.771Z,31.60
2022-08-25T06:58:53.273Z,31.00
2022-08-25T07:01:23.365Z,31.10
2022-08-25T07:03:59.816Z,31.60
2022-08-25T07:06:27.326Z,32.20
2022-08-25T07:08:53.957Z,32.30
2022-08-25T07:11:23.249Z,32.30
2022-08-25T07:13:50.636Z,32.50
2022-08-25T07:16:17.987Z,32.80
2022-08-25T07:18:44.916Z,33.30
2022-08-25T07:21:12.276Z,33.70
2022-08-25T07:23:39.256Z,33.60
2022-08-25T07:26:33.587Z,34.10
2022-08-25T07:29:00.056Z,34.30
2022-08-25T07:31:29.461Z,34.30
2022-08-25T07:34:15.197Z,34.50
2022-08-25T07:36:43.261Z,34.30
2022-08-25T07:39:09.845Z,34.50
2022-08-25T07:41:36.718Z,34.50
2022-08-25T07:44:03.662Z,34.00
2022-08-25T07:46:31.019Z,33.90
2022-08-25T07:49:00.618Z,33.80
2022-08-25T07:53:58.861Z,33.50
2022-08-25T07:56:27.752Z,33.20
2022-08-25T07:58:54.323Z,33.00
2022-08-25T08:01:21.671Z,33.20
2022-08-25T08:03:51.188Z,32.70
2022-08-25T08:06:19.414Z,33.00
2022-08-25T08:08:46.447Z,33.00
2022-08-25T08:11:19.564Z,33.40
2022-08-25T08:13:47.349Z,33.50
2022-08-25T08:16:17.685Z,33.80
2022-08-25T08:18:44.793Z,34.10
2022-08-25T08:21:12.626Z,34.10
2022-08-25T08:23:39.238Z,33.90
2022-08-25T08:26:05.963Z,33.60
2022-08-25T08:28:32.997Z,33.50
2022-08-25T08:30:59.658Z,32.60
2022-08-25T08:33:26.353Z,31.60
2022-08-25T08:36:12.499Z,31.10
2022-08-25T08:38:40.563Z,30.60
2022-08-25T08:44:33.952Z,29.60
2022-08-25T08:47:04.645Z,28.90
2022-08-25T08:49:54.573Z,28.80
2022-08-25T08:52:22.513Z,28.60
2022-08-25T08:55:05.644Z,28.90
2022-08-25T08:57:33.630Z,28.40
2022-08-25T09:00:01.142Z,28.60
2022-08-25T09:02:39.230Z,28.80
2022-08-25T09:05:19.930Z,28.40
2022-08-25T09:07:48.341Z,28.40
2022-08-25T09:10:15.551Z,28.40
2022-08-25T09:13:03.011Z,28.70
2022-08-25T09:16:05.836Z,29.00
2022-08-25T09:18:58.889Z,29.30
2022-08-25T09:21:25.399Z,29.50
2022-08-25T09:24:11.771Z,29.30
2022-08-25T09:26:42.316Z,29.30
2022-08-25T09:29:16.611Z,29.50
2022-08-25T09:31:43.916Z,29.30
2022-08-25T09:34:20.751Z,28.90
2022-08-25T09:36:48.638Z,28.70
2022-08-25T09:39:15.692Z,28.30
2022-08-25T09:41:52.568Z,28.10
2022-08-25T09:44:20.672Z,28.00
2022-08-25T09:46:54.932Z,28.00
2022-08-25T09:49:21.590Z,27.80
2022-08-25T09:51:48.365Z,27.70
2022-08-25T09:54:19.940Z,27.50
2022-08-25T09:56:49.539Z,27.80
2022-08-25T09:59:34.410Z,28.00
2022-08-25T10:02:03.003Z,28.00
2022-08-25T10:04:32.023Z,28.40
2022-08-25T10:06:59.146Z,29.20
2022-08-25T10:09:31.598Z,29.70
2022-08-25T10:12:01.183Z,29.00
2022-08-25T10:14:32.709Z,28.60
2022-08-25T10:17:27.599Z,28.60
2022-08-25T10:19:55.465Z,29.20
2022-08-25T10:22:24.281Z,29.50
2022-08-25T10:24:50.907Z,29.40
2022-08-25T10:27:36.547Z,29.40
2022-08-25T10:30:06.897Z,29.40
2022-08-25T10:32:33.484Z,29.30
2022-08-25T10:35:00.806Z,29.50
2022-08-25T10:37:35.975Z,29.40
2022-08-25T10:40:06.597Z,29.30
2022-08-25T10:42:38.753Z,28.90
2022-08-25T10:45:43.637Z,29.10
2022-08-25T10:48:23.928Z,29.40
2022-08-25T10:51:01.086Z,29.50
2022-08-25T10:53:42.418Z,29.50
2022-08-25T10:56:13.131Z,29.60
2022-08-25T10:58:59.743Z,30.10
2022-08-25T11:01:28.978Z,30.10
2022-08-25T11:04:13.854Z,29.80
2022-08-25T11:06:40.501Z,29.00
2022-08-25T11:09:08.889Z,28.70
2022-08-25T11:11:53.603Z,29.00
2022-08-25T11:14:34.422Z,29.00
2022-08-25T11:17:04.188Z,28.80
2022-08-25T11:19:32.764Z,28.90
2022-08-25T11:22:06.842Z,29.10
2022-08-25T11:24:37.517Z,28.90
2022-08-25T11:27:04.992Z,28.80
2022-08-25T11:29:33.658Z,29.00
2022-08-25T11:32:00.949Z,29.20
2022-08-25T11:34:28.693Z,28.90
2022-08-25T11:36:57.572Z,28.80
2022-08-25T11:39:42.885Z,28.70
2022-08-25T11:42:12.740Z,28.40
2022-08-25T11:44:50.127Z,28.40
2022-08-25T11:47:21.134Z,28.40
2022-08-25T11:49:52.050Z,28.30
2022-08-25T11:52:34.665Z,28.70
2022-08-25T11:55:11.825Z,29.00
2022-08-25T11:57:38.416Z,29.30
2022-08-25T12:00:14.220Z,29.20
2022-08-25T12:02:42.597Z,28.90
2022-08-25T12:05:15.241Z,28.60
2022-08-25T12:08:14.285Z,29.00
2022-08-25T12:10:57.425Z,29.00
2022-08-25T12:13:25.640Z,28.80
2022-08-25T12:15:52.150Z,28.60
2022-08-25T12:18:22.753Z,29.00
2022-08-25T12:20:52.455Z,29.40
2022-08-25T12:23:28.100Z,29.50
2022-08-25T12:25:54.701Z,29.80
2022-08-25T12:28:27.699Z,29.70
2022-08-25T12:31:04.422Z,29.80
2022-08-25T12:33:50.244Z,29.50
2022-08-25T12:36:26.923Z,29.40
2022-08-25T12:38:53.609Z,29.60
2022-08-25T12:41:22.101Z,30.10
2022-08-25T12:43:52.305Z,30.10
2022-08-25T12:46:22.862Z,30.10
2022-08-25T12:48:56.186Z,30.00
2022-08-25T12:51:23.865Z,29.40
2022-08-25T12:53:54.587Z,29.10
2022-08-25T12:56:21.139Z,29.50
2022-08-25T12:59:01.123Z,29.80
2022-08-25T13:01:46.998Z,29.90
2022-08-25T13:04:13.577Z,29.90
2022-08-25T13:06:49.495Z,30.10
2022-08-25T13:09:21.674Z,29.70
2022-08-25T13:12:06.097Z,29.10
2022-08-25T13:14:42.128Z,29.00
2022-08-25T13:17:10.669Z,29.60
2022-08-25T13:19:37.931Z,30.10
2022-08-25T13:22:15.608Z,30.60
2022-08-25T13:24:43.591Z,30.70
2022-08-25T13:27:18.146Z,30.60
2022-08-25T13:29:56.420Z,30.70
2022-08-25T13:32:29.741Z,30.70
2022-08-25T13:35:08.907Z,30.80
2022-08-25T13:37:35.583Z,31.00
2022-08-25T13:40:12.305Z,31.10
2022-08-25T13:42:42.423Z,30.80
2022-08-25T13:45:18.482Z,30.70
2022-08-25T13:47:46.025Z,30.50
2022-08-25T13:50:20.662Z,30.40
2022-08-25T13:52:54.539Z,30.40
2022-08-25T13:55:27.347Z,30.70
2022-08-25T13:57:54.457Z,30.90
2022-08-25T14:00:31.666Z,31.40
2022-08-25T14:02:58.787Z,31.70
2022-08-25T14:05:33.247Z,32.10
2022-08-25T14:08:16.103Z,32.30
2022-08-25T14:10:49.656Z,32.40
2022-08-25T14:13:17.305Z,32.60
2022-08-25T14:15:45.608Z,32.40
2022-08-25T14:18:19.771Z,32.50
2022-08-25T14:20:49.511Z,32.60
2022-08-25T14:23:19.033Z,32.60
2022-08-25T14:25:46.075Z,32.10
2022-08-25T14:28:14.261Z,31.40
2022-08-25T14:30:43.355Z,31.00
2022-08-25T14:33:12.881Z,30.80
2022-08-25T14:35:39.462Z,30.60
2022-08-25T14:38:10.042Z,30.30
2022-08-25T14:40:36.851Z,30.10
2022-08-25T14:43:03.590Z,30.10
2022-08-25T14:45:31.322Z,30.10
2022-08-25T14:48:02.042Z,30.40
2022-08-25T14:50:29.907Z,31.00
2022-08-25T14:52:59.673Z,31.30
2022-08-25T14:55:31.230Z,31.50
2022-08-25T14:57:58.593Z,31.70
2022-08-25T15:00:26.031Z,31.70
2022-08-25T15:02:52.875Z,31.80
2022-08-25T15:05:24.640Z,31.70
2022-08-25T15:08:10.183Z,31.70
2022-08-25T15:10:39.343Z,31.40
2022-08-25T15:13:06.318Z,31.10
2022-08-25T15:15:33.809Z,30.90
2022-08-25T15:18:01.220Z,30.70
2022-08-25T15:20:28.069Z,30.50
2022-08-25T15:22:55.768Z,30.40
2022-08-25T15:25:22.791Z,30.20
2022-08-25T15:27:51.056Z,30.40
2022-08-25T15:30:17.725Z,30.70
2022-08-25T15:32:45.092Z,30.70
2022-08-25T15:35:15.471Z,30.80
2022-08-25T15:37:42.201Z,31.00
2022-08-25T15:40:09.104Z,31.10
2022-08-25T15:42:36.956Z,30.80
2022-08-25T15:45:03.587Z,30.80
2022-08-25T15:47:32.312Z,30.70
2022-08-25T15:50:03.303Z,30.50
2022-08-25T15:52:44.609Z,30.30
2022-08-25T15:55:14.086Z,30.10
2022-08-25T15:57:41.027Z,30.00
2022-08-25T16:00:11.154Z,29.80
2022-08-25T16:02:39.397Z,29.80
2022-08-25T16:05:06.951Z,29.70
2022-08-25T16:07:33.534Z,29.60
2022-08-25T16:10:00.137Z,29.80
2022-08-25T16:12:26.740Z,29.80
2022-08-25T16:14:54.629Z,29.80
2022-08-25T16:17:22.026Z,29.90
2022-08-25T16:19:48.849Z,30.10
2022-08-25T16:22:15.442Z,30.10
2022-08-25T16:24:44.156Z,30.10
2022-08-25T16:27:12.194Z,30.00
2022-08-25T16:29:39.534Z,30.00
2022-08-25T16:32:06.901Z,29.80
2022-08-25T16:34:33.757Z,29.70
2022-08-25T16:37:01.265Z,29.50
2022-08-25T16:39:28.004Z,29.40
2022-08-25T16:41:54.606Z,29.20
2022-08-25T16:44:22.803Z,29.20
2022-08-25T16:46:50.002Z,29.00
2022-08-25T16:49:17.534Z,29.10
2022-08-25T16:51:44.108Z,29.20
2022-08-25T16:54:29.473Z,29.20
2022-08-25T16:56:57.407Z,29.20
2022-08-25T16:59:24.201Z,29.10
2022-08-25T17:01:51.045Z,29.00
2022-08-25T17:04:17.747Z,28.90
2022-08-25T17:06:51.525Z,28.80
2022-08-25T17:09:23.761Z,28.80
2022-08-25T17:11:52.551Z,28.60
2022-08-25T17:14:20.935Z,28.70
2022-08-25T17:16:50.690Z,28.60
2022-08-25T17:19:17.367Z,28.60
2022-08-25T17:21:46.161Z,28.50
2022-08-25T17:24:13.174Z,28.40
2022-08-25T17:26:41.098Z,28.40
2022-08-25T17:29:08.040Z,28.30
2022-08-25T17:31:39.843Z,28.20
2022-08-25T17:34:08.012Z,28.10
2022-08-25T17:36:35.406Z,28.00
2022-08-25T17:39:03.141Z,27.90
2022-08-25T17:41:30.091Z,27.90
2022-08-25T17:43:57.033Z,27.80
2022-08-25T17:46:24.510Z,27.70
2022-08-25T17:48:51.277Z,27.70
2022-08-25T17:51:17.865Z,27.60
2022-08-25T17:53:44.486Z,27.50
2022-08-25T17:56:12.253Z,27.40
2022-08-25T17:58:39.533Z,27.40
2022-08-25T18:01:06.227Z,27.30
2022-08-25T18:03:32.844Z,27.20
2022-08-25T18:05:59.472Z,27.20
2022-08-25T18:08:29.925Z,27.10
2022-08-25T18:11:01.536Z,27.00
2022-08-25T18:13:28.609Z,26.90
2022-08-25T18:15:55.245Z,26.90
2022-08-25T18:18:21.997Z,26.80
2022-08-25T18:20:51.105Z,26.80
2022-08-25T18:23:19.747Z,26.80
2022-08-25T18:25:47.846Z,26.70
2022-08-25T18:28:14.633Z,26.60
2022-08-25T18:30:41.301Z,26.60
2022-08-25T18:33:07.903Z,26.50
2022-08-25T18:35:34.691Z,26.50
2022-08-25T18:38:20.038Z,26.40
2022-08-25T18:40:47.887Z,26.40
2022-08-25T18:43:14.805Z,26.40
2022-08-25T18:45:43.299Z,26.30
2022-08-25T18:48:10.026Z,26.30
2022-08-25T18:50:38.594Z,26.30
2022-08-25T18:53:06.231Z,26.20
2022-08-25T18:55:32.989Z,26.10
2022-08-25T18:58:00.367Z,26.00
2022-08-25T19:00:27.782Z,25.90
2022-08-25T19:02:54.968Z,25.90
2022-08-25T19:05:25.546Z,25.70
2022-08-25T19:07:52.690Z,25.70
2022-08-25T19:10:19.916Z,25.60
2022-08-25T19:12:50.981Z,25.50
2022-08-25T19:15:18.080Z,25.40
2022-08-25T19:17:53.225Z,25.40
2022-08-25T19:20:19.949Z,25.30
2022-08-25T19:22:46.821Z,25.30
2022-08-25T19:25:13.461Z,25.20
2022-08-25T19:27:40.302Z,25.20
2022-08-25T19:30:08.857Z,25.10
2022-08-25T19:32:39.163Z,25.10
2022-08-25T19:35:08.335Z,25.00
2022-08-25T19:37:35.848Z,25.00
2022-08-25T19:40:02.743Z,24.90
2022-08-25T19:42:36.860Z,24.90
2022-08-25T19:45:05.749Z,24.80
2022-08-25T19:47:32.326Z,24.80
2022-08-25T19:49:58.964Z,24.80
2022-08-25T19:52:26.507Z,24.80
2022-08-25T19:54:53.682Z,24.80
2022-08-25T19:57:28.428Z,24.80
2022-08-25T20:00:08.009Z,24.80
2022-08-25T20:02:34.794Z,24.70
2022-08-25T20:05:01.431Z,24.70
2022-08-25T20:07:29.154Z,24.60
2022-08-25T20:09:55.961Z,24.60
2022-08-25T20:12:23.043Z,24.50
2022-08-25T20:14:49.874Z,24.50
2022-08-25T20:17:24.848Z,24.50
2022-08-25T20:19:57.033Z,24.50
2022-08-25T20:22:26.213Z,24.50
2022-08-25T20:24:56.115Z,24.50
2022-08-25T20:27:25.381Z,24.50
2022-08-25T20:29:52.065Z,24.40
2022-08-25T20:32:22.623Z,24.40
2022-08-25T20:34:49.590Z,24.40
2022-08-25T20:37:16.556Z,24.30
2022-08-25T20:39:43.183Z,24.20
2022-08-25T20:42:09.852Z,24.00
2022-08-25T20:44:41.350Z,23.90
2022-08-25T20:47:10.353Z,23.70
2022-08-25T20:49:38.041Z,23.80
2022-08-25T20:52:04.764Z,23.70
2022-08-25T20:54:31.412Z,23.70
2022-08-25T20:56:59.357Z,23.60
2022-08-25T20:59:27.002Z,23.50
2022-08-25T21:01:53.993Z,23.40
2022-08-25T21:04:21.285Z,23.40
2022-08-25T21:06:48.321Z,23.30
2022-08-25T21:09:16.223Z,23.30
2022-08-25T21:11:43.180Z,23.30
2022-08-25T21:14:09.953Z,23.30
2022-08-25T21:16:37.633Z,23.30
2022-08-25T21:19:04.347Z,23.30
2022-08-25T21:21:37.358Z,23.30
2022-08-25T21:24:06.184Z,23.40
2022-08-25T21:26:35.437Z,23.40
2022-08-25T21:29:03.834Z,23.40
2022-08-25T21:31:30.619Z,23.50
2022-08-25T21:33:57.605Z,23.50
2022-08-25T21:36:24.699Z,23.60
2022-08-25T21:38:52.501Z,23.60
2022-08-25T21:41:21.343Z,23.60
2022-08-25T21:43:48.347Z,23.50
2022-08-25T21:46:15.624Z,23.30
2022-08-25T21:48:42.278Z,23.20
2022-08-25T21:51:21.984Z,23.10
2022-08-25T21:53:49.078Z,23.00
2022-08-25T21:56:17.246Z,22.90
2022-08-25T21:58:44.708Z,22.80
2022-08-25T22:01:17.168Z,22.70
2022-08-25T22:03:47.148Z,22.60
2022-08-25T22:06:14.219Z,22.60
2022-08-25T22:08:43.156Z,22.40
2022-08-25T22:11:09.776Z,22.30
2022-08-25T22:13:36.791Z,22.20
2022-08-25T22:16:08.038Z,22.10
2022-08-25T22:18:35.118Z,22.00
2022-08-25T22:21:07.295Z,22.00
2022-08-25T22:23:44.076Z,22.00
2022-08-25T22:26:11.428Z,21.90
2022-08-25T22:28:38.003Z,21.90
2022-08-25T22:31:04.816Z,21.90
2022-08-25T22:33:34.563Z,21.80
2022-08-25T22:36:01.156Z,21.80
2022-08-25T22:38:27.778Z,21.90
2022-08-25T22:40:54.577Z,21.80
2022-08-25T22:43:21.623Z,21.80
2022-08-25T22:45:48.296Z,21.80
2022-08-25T22:48:17.057Z,21.80
2022-08-25T22:50:44.481Z,21.80
2022-08-25T22:53:11.260Z,21.90
2022-08-25T22:55:41.956Z,21.90
2022-08-25T22:58:09.563Z,21.90
2022-08-25T23:00:38.301Z,21.90
2022-08-25T23:03:06.741Z,21.90
2022-08-25T23:05:35.220Z,21.80
2022-08-25T23:08:02.028Z,21.70
2022-08-25T23:10:28.679Z,21.70
2022-08-25T23:12:55.273Z,21.70
2022-08-25T23:15:21.946Z,21.60
2022-08-25T23:17:50.107Z,21.50
2022-08-25T23:20:46.149Z,21.40
2022-08-25T23:23:13.730Z,21.40
2022-08-25T23:25:40.379Z,21.40
2022-08-25T23:28:07.060Z,21.50
2022-08-25T23:30:34.337Z,21.50
2022-08-25T23:33:01.417Z,21.60
2022-08-25T23:35:28.072Z,21.60
2022-08-25T23:37:56.203Z,21.70
2022-08-25T23:40:23.659Z,21.70
2022-08-25T23:42:50.308Z,21.60
2022-08-25T23:45:16.974Z,21.60
2022-08-25T23:47:43.557Z,21.60
2022-08-25T23:50:10.347Z,21.60
2022-08-25T23:52:36.937Z,21.50
2022-08-25T23:55:03.593Z,21.60
2022-08-25T23:57:31.223Z,21.60
2022-08-25T23:59:57.883Z,21.70
